createdAt,value
2019-02-19T00:01:36.300Z,99657.36
2019-02-19T00:04:04.109Z,99657.25
2019-02-19T00:06:31.929Z,99659.09
2019-02-19T00:08:59.771Z,99652.17
2019-02-19T00:11:27.744Z,99652.83
2019-02-19T00:13:55.568Z,99654.41
2019-02-19T00:16:23.383Z,99649.63
2019-02-19T00:18:51.225Z,99645.80
2019-02-19T00:21:19.009Z,99639.66
2019-02-19T00:23:46.849Z,99640.80
2019-02-19T00:26:17.160Z,99642.87
2019-02-19T00:28:45.023Z,99645.11
2019-02-19T00:31:12.852Z,99643.78
2019-02-19T00:33:40.671Z,99641.52
2019-02-19T00:36:08.483Z,99637.19
2019-02-19T00:38:36.249Z,99642.42
2019-02-19T00:41:04.121Z,99634.79
2019-02-19T00:43:32.383Z,99642.36
2019-02-19T00:46:00.218Z,99640.55
2019-02-19T00:48:28.126Z,99633.98
2019-02-19T00:51:15.368Z,99638.90
2019-02-19T00:53:43.161Z,99637.67
2019-02-19T00:56:10.979Z,99638.03
2019-02-19T00:58:38.790Z,99637.44
2019-02-19T01:01:06.590Z,99636.51
2019-02-19T01:03:34.441Z,99640.30
2019-02-19T01:06:04.256Z,99646.80
2019-02-19T01:08:32.113Z,99644.56
2019-02-19T01:10:59.901Z,99645.59
2019-02-19T01:13:27.737Z,99648.83
2019-02-19T01:15:55.709Z,99644.14
2019-02-19T01:18:23.496Z,99631.06
2019-02-19T01:20:51.296Z,99643.91
2019-02-19T01:23:19.116Z,99639.48
2019-02-19T01:25:46.933Z,99635.50
2019-02-19T01:28:14.754Z,99632.03
2019-02-19T01:30:47.781Z,99629.06
2019-02-19T01:33:15.632Z,99629.70
2019-02-19T01:35:43.460Z,99631.03
2019-02-19T01:38:11.259Z,99624.79
2019-02-19T01:40:39.148Z,99633.61
2019-02-19T01:43:06.995Z,99634.55
2019-02-19T01:45:47.101Z,99629.85
2019-02-19T01:48:14.906Z,99635.70
2019-02-19T01:50:42.703Z,99635.48
2019-02-19T01:53:10.490Z,99632.54
2019-02-19T01:55:38.256Z,99630.92
2019-02-19T01:58:06.110Z,99628.97
2019-02-19T02:00:33.932Z,99631.34
2019-02-19T02:03:01.706Z,99632.47
2019-02-19T02:05:29.519Z,99633.89
2019-02-19T02:07:57.362Z,99631.88
2019-02-19T02:10:25.199Z,99629.91
2019-02-19T02:12:53.009Z,99627.55
2019-02-19T02:15:20.787Z,99627.02
2019-02-19T02:17:48.561Z,99611.45
2019-02-19T02:20:16.630Z,99619.54
2019-02-19T02:22:44.496Z,99622.39
2019-02-19T02:25:12.271Z,99624.94
2019-02-19T02:27:40.017Z,99626.43
2019-02-19T02:30:08.161Z,99624.14
2019-02-19T02:32:35.982Z,99627.20
2019-02-19T02:35:03.924Z,99628.20
2019-02-19T02:37:31.756Z,99621.13
2019-02-19T02:39:59.604Z,99621.24
2019-02-19T02:42:27.439Z,99626.05
2019-02-19T02:44:55.238Z,99625.89
2019-02-19T02:47:23.091Z,99620.55
2019-02-19T02:49:51.012Z,99621.45
2019-02-19T02:52:18.875Z,99621.22
2019-02-19T02:54:46.634Z,99619.61
2019-02-19T02:57:14.488Z,99622.09
2019-02-19T02:59:42.308Z,99621.78
2019-02-19T03:02:10.150Z,99617.86
2019-02-19T03:04:37.948Z,99615.97
2019-02-19T03:07:23.996Z,99616.11
2019-02-19T03:09:51.958Z,99615.22
2019-02-19T03:12:19.785Z,99604.83
2019-02-19T03:14:47.584Z,99605.52
2019-02-19T03:17:15.516Z,99606.19
2019-02-19T03:19:53.386Z,99609.75
2019-02-19T03:22:21.195Z,99604.92
2019-02-19T03:24:49.026Z,99609.30
2019-02-19T03:27:16.827Z,99606.73
2019-02-19T03:29:44.727Z,99606.05
2019-02-19T03:32:12.505Z,99608.48
2019-02-19T03:34:40.341Z,99609.48
2019-02-19T03:37:08.112Z,99611.07
2019-02-19T03:39:36.195Z,99614.20
2019-02-19T03:42:03.999Z,99613.75
2019-02-19T03:44:31.812Z,99618.87
2019-02-19T03:46:59.611Z,99615.48
2019-02-19T03:50:03.349Z,99612.76
2019-02-19T03:52:31.170Z,99615.38
2019-02-19T03:54:58.954Z,99615.34
2019-02-19T03:57:26.777Z,99617.25
2019-02-19T03:59:54.571Z,99615.89
2019-02-19T04:02:22.463Z,99621.00
2019-02-19T04:04:50.305Z,99618.44
2019-02-19T04:07:18.091Z,99620.90
2019-02-19T04:09:45.960Z,99621.81
2019-02-19T04:12:13.740Z,99628.13
2019-02-19T04:14:41.553Z,99630.16
2019-02-19T04:17:09.339Z,99633.78
2019-02-19T04:19:37.167Z,99628.47
2019-02-19T04:22:04.976Z,99635.75
2019-02-19T04:24:32.807Z,99627.27
2019-02-19T04:27:00.636Z,99631.14
2019-02-19T04:29:28.434Z,99626.25
2019-02-19T04:31:56.226Z,99638.00
2019-02-19T04:34:24.032Z,99635.92
2019-02-19T04:36:51.826Z,99638.00
2019-02-19T04:39:19.624Z,99634.75
2019-02-19T04:41:47.432Z,99634.34
2019-02-19T04:44:15.227Z,99636.25
2019-02-19T04:46:43.068Z,99633.72
2019-02-19T04:49:26.072Z,99635.27
2019-02-19T04:51:53.895Z,99644.41
2019-02-19T04:54:41.131Z,99643.27
2019-02-19T04:57:08.934Z,99645.86
2019-02-19T04:59:36.791Z,99641.27
2019-02-19T05:02:04.578Z,99639.61
2019-02-19T05:04:32.392Z,99635.04
2019-02-19T05:07:00.202Z,99640.88
2019-02-19T05:09:28.431Z,99643.27
2019-02-19T05:11:56.231Z,99643.43
2019-02-19T05:14:24.029Z,99648.61
2019-02-19T05:16:51.923Z,99649.64
2019-02-19T05:19:24.754Z,99647.76
2019-02-19T05:21:52.582Z,99657.14
2019-02-19T05:24:20.360Z,99658.81
2019-02-19T05:26:48.220Z,99659.26
2019-02-19T05:29:20.997Z,99661.28
2019-02-19T05:31:48.826Z,99659.39
2019-02-19T05:34:36.061Z,99661.68
2019-02-19T05:37:03.819Z,99664.84
2019-02-19T05:39:31.720Z,99662.69
2019-02-19T05:41:59.575Z,99666.52
2019-02-19T05:44:27.453Z,99668.04
2019-02-19T05:46:55.264Z,99667.20
2019-02-19T05:49:23.216Z,99663.33
2019-02-19T05:51:51.034Z,99669.05
2019-02-19T05:54:18.950Z,99667.38
2019-02-19T05:56:46.791Z,99664.97
2019-02-19T05:59:14.620Z,99669.84
2019-02-19T06:01:42.465Z,99671.73
2019-02-19T06:04:10.296Z,99670.61
2019-02-19T06:06:38.150Z,99669.33
2019-02-19T06:09:05.981Z,99667.06
2019-02-19T06:11:33.763Z,99671.69
2019-02-19T06:14:21.029Z,99669.14
2019-02-19T06:16:58.103Z,99676.52
2019-02-19T06:19:39.692Z,99679.20
2019-02-19T06:22:07.545Z,99679.53
2019-02-19T06:24:35.378Z,99686.59
2019-02-19T06:27:17.148Z,99690.83
2019-02-19T06:29:45.352Z,99679.77
2019-02-19T06:32:13.165Z,99689.88
2019-02-19T06:34:41.356Z,99691.44
2019-02-19T06:37:09.129Z,99702.90
2019-02-19T06:39:37.045Z,99715.62
2019-02-19T06:42:04.854Z,99713.11
2019-02-19T06:44:32.696Z,99711.20
2019-02-19T06:47:06.670Z,99711.23
2019-02-19T06:49:49.952Z,99715.05
2019-02-19T06:52:17.733Z,99713.95
2019-02-19T06:54:45.554Z,99679.73
2019-02-19T06:57:13.367Z,99717.32
2019-02-19T06:59:41.212Z,99719.30
2019-02-19T07:02:24.719Z,99725.09
2019-02-19T07:04:55.768Z,99725.25
2019-02-19T07:07:23.601Z,99726.58
2019-02-19T07:09:56.662Z,99723.73
2019-02-19T07:12:24.491Z,99725.66
2019-02-19T07:14:52.313Z,99726.77
2019-02-19T07:17:20.123Z,99725.05
2019-02-19T07:19:47.992Z,99726.30
2019-02-19T07:22:15.752Z,99727.53
2019-02-19T07:24:43.590Z,99729.52
2019-02-19T07:27:11.443Z,99737.79
2019-02-19T07:29:39.370Z,99732.97
2019-02-19T07:32:07.199Z,99735.98
2019-02-19T07:34:35.096Z,99731.74
2019-02-19T07:37:02.913Z,99733.66
2019-02-19T07:39:30.757Z,99739.05
2019-02-19T07:41:58.515Z,99745.61
2019-02-19T07:44:26.350Z,99748.34
2019-02-19T07:46:54.180Z,99743.47
2019-02-19T07:49:23.173Z,99748.72
2019-02-19T07:51:51.249Z,99754.45
2019-02-19T07:54:19.028Z,99754.59
2019-02-19T07:56:46.834Z,99746.86
2019-02-19T07:59:14.607Z,99746.78
2019-02-19T08:01:42.411Z,99746.20
2019-02-19T08:04:10.219Z,99741.56
2019-02-19T08:06:38.007Z,99741.98
2019-02-19T08:09:11.652Z,99741.40
2019-02-19T08:11:39.944Z,99746.95
2019-02-19T08:14:09.024Z,99748.56
2019-02-19T08:16:39.777Z,99746.62
2019-02-19T08:19:08.271Z,99744.61
2019-02-19T08:21:36.061Z,99745.05
2019-02-19T08:24:07.210Z,99744.59
2019-02-19T08:26:35.027Z,99749.91
2019-02-19T08:29:13.030Z,99753.53
2019-02-19T08:31:32.542Z,99766.27
2019-02-19T08:34:00.364Z,99768.55
2019-02-19T08:36:29.703Z,99763.08
2019-02-19T08:38:57.800Z,99764.87
2019-02-19T08:41:25.652Z,99767.05
2019-02-19T08:43:53.518Z,99766.40
2019-02-19T08:46:21.301Z,99772.05
2019-02-19T08:48:49.145Z,99769.55
2019-02-19T08:51:16.942Z,99776.02
2019-02-19T08:53:44.713Z,99773.42
2019-02-19T08:56:12.627Z,99773.45
2019-02-19T08:58:40.448Z,99774.47
2019-02-19T09:01:13.434Z,99782.27
2019-02-19T09:03:41.237Z,99781.29
2019-02-19T09:06:28.875Z,99787.11
2019-02-19T09:08:56.666Z,99790.86
2019-02-19T09:11:24.478Z,99792.85
2019-02-19T09:13:52.297Z,99788.78
2019-02-19T09:16:20.093Z,99795.19
2019-02-19T09:18:47.928Z,99798.91
2019-02-19T09:21:16.595Z,99798.91
2019-02-19T09:23:44.434Z,99801.09
2019-02-19T09:26:12.260Z,99802.36
2019-02-19T09:28:40.099Z,99804.47
2019-02-19T09:31:07.913Z,99808.38
2019-02-19T09:33:35.762Z,99813.81
2019-02-19T09:36:03.664Z,99808.20
2019-02-19T09:38:31.516Z,99807.37
2019-02-19T09:40:59.286Z,99810.52
2019-02-19T09:43:35.127Z,99815.60
2019-02-19T09:45:58.889Z,99813.64
2019-02-19T09:48:26.547Z,99811.96
2019-02-19T09:50:55.449Z,99821.30
2019-02-19T09:53:23.309Z,99820.06
2019-02-19T09:55:51.282Z,99820.98
2019-02-19T09:58:19.137Z,99824.67
2019-02-19T10:00:46.927Z,99831.88
2019-02-19T10:03:15.484Z,99834.31
2019-02-19T10:05:43.302Z,99835.06
2019-02-19T10:08:11.156Z,99834.47
2019-02-19T10:10:38.937Z,99833.56
2019-02-19T10:13:06.696Z,99837.95
2019-02-19T10:15:34.476Z,99837.77
2019-02-19T10:18:09.970Z,99839.95
2019-02-19T10:20:37.225Z,99838.91
2019-02-19T10:23:05.001Z,99841.09
2019-02-19T10:25:32.870Z,99843.02
2019-02-19T10:28:00.679Z,99843.23
2019-02-19T10:30:28.472Z,99845.60
2019-02-19T10:32:56.317Z,99844.80
2019-02-19T10:35:24.579Z,99845.86
2019-02-19T10:37:52.509Z,99843.89
2019-02-19T10:40:30.383Z,99845.00
2019-02-19T10:42:58.288Z,99850.08
2019-02-19T10:45:26.202Z,99853.09
2019-02-19T10:47:54.057Z,99853.34
2019-02-19T10:50:23.664Z,99848.34
2019-02-19T10:52:53.159Z,99849.33
2019-02-19T10:55:23.519Z,99851.91
2019-02-19T10:57:54.082Z,99847.28
2019-02-19T11:00:23.029Z,99849.32
2019-02-19T11:02:50.832Z,99851.03
2019-02-19T11:05:18.713Z,99854.73
2019-02-19T11:07:46.582Z,99850.25
2019-02-19T11:10:45.098Z,99857.03
2019-02-19T11:13:12.926Z,99847.62
2019-02-19T11:15:40.743Z,99845.29
2019-02-19T11:18:08.624Z,99844.79
2019-02-19T11:20:36.416Z,99848.72
2019-02-19T11:23:04.199Z,99846.28
2019-02-19T11:25:32.048Z,99848.34
2019-02-19T11:27:59.912Z,99843.15
2019-02-19T11:30:58.257Z,99837.60
2019-02-19T11:33:26.031Z,99832.98
2019-02-19T11:35:54.861Z,99831.23
2019-02-19T11:38:22.998Z,99834.30
2019-02-19T11:41:31.186Z,99836.13
2019-02-19T11:43:59.014Z,99828.81
2019-02-19T11:46:26.914Z,99830.71
2019-02-19T11:48:56.191Z,99820.45
2019-02-19T11:51:24.344Z,99817.64
2019-02-19T11:53:52.194Z,99823.27
2019-02-19T11:56:20.004Z,99823.86
2019-02-19T11:58:47.791Z,99832.86
2019-02-19T12:01:15.638Z,99824.86
2019-02-19T12:03:43.448Z,99822.76
2019-02-19T12:06:32.774Z,99819.93
2019-02-19T12:09:55.555Z,99823.14
2019-02-19T12:12:23.383Z,99823.95
2019-02-19T12:14:51.192Z,99823.83
2019-02-19T12:17:18.970Z,99815.16
2019-02-19T12:19:46.748Z,99819.20
2019-02-19T12:22:15.785Z,99817.23
2019-02-19T12:24:43.609Z,99807.70
2019-02-19T12:27:11.467Z,99806.79
2019-02-19T12:29:39.245Z,99803.41
2019-02-19T12:32:09.883Z,99804.47
2019-02-19T12:34:37.689Z,99799.69
2019-02-19T12:37:08.640Z,99797.25
2019-02-19T12:39:36.475Z,99796.89
2019-02-19T12:42:04.322Z,99791.42
2019-02-19T12:44:32.100Z,99792.67
2019-02-19T12:46:59.936Z,99793.14
2019-02-19T12:49:27.872Z,99795.73
2019-02-19T12:51:55.737Z,99781.23
2019-02-19T12:54:23.570Z,99783.55
2019-02-19T12:56:51.378Z,99778.70
2019-02-19T12:59:19.203Z,99776.39
2019-02-19T13:01:46.999Z,99767.15
2019-02-19T13:04:14.875Z,99764.93
2019-02-19T13:06:42.673Z,99767.01
2019-02-19T13:09:11.054Z,99763.40
2019-02-19T13:11:38.812Z,99768.83
2019-02-19T13:14:06.692Z,99776.92
2019-02-19T13:16:34.533Z,99780.56
2019-02-19T13:19:03.744Z,99764.55
2019-02-19T13:21:33.501Z,99756.02
2019-02-19T13:24:01.373Z,99758.66
2019-02-19T13:26:29.238Z,99757.84
2019-02-19T13:28:57.062Z,99749.94
2019-02-19T13:31:24.889Z,99752.34
2019-02-19T13:33:52.688Z,99755.13
2019-02-19T13:36:20.561Z,99743.03
2019-02-19T13:38:48.349Z,99747.08
2019-02-19T13:41:21.435Z,99749.76
2019-02-19T13:43:49.213Z,99752.48
2019-02-19T13:46:17.082Z,99753.91
2019-02-19T13:48:44.883Z,99754.96
2019-02-19T13:51:12.735Z,99757.98
2019-02-19T13:53:46.876Z,99754.73
2019-02-19T13:56:14.670Z,99757.03
2019-02-19T13:58:42.455Z,99761.67
2019-02-19T14:01:25.403Z,99762.41
2019-02-19T14:03:53.223Z,99762.86
2019-02-19T14:06:21.001Z,99759.30
2019-02-19T14:08:48.783Z,99753.77
2019-02-19T14:11:16.592Z,99748.52
2019-02-19T14:13:51.803Z,99751.23
2019-02-19T14:16:24.318Z,99745.36
2019-02-19T14:18:53.688Z,99746.39
2019-02-19T14:21:38.933Z,99752.05
2019-02-19T14:24:44.276Z,99756.27
2019-02-19T14:27:34.778Z,99744.88
2019-02-19T14:30:40.073Z,99740.97
2019-02-19T14:33:26.054Z,99740.23
2019-02-19T14:36:22.571Z,99742.65
2019-02-19T14:39:08.535Z,99733.97
2019-02-19T14:41:58.423Z,99735.83
2019-02-19T14:44:40.383Z,99738.77
2019-02-19T14:47:26.314Z,99742.87
2019-02-19T14:50:20.012Z,99745.38
2019-02-19T14:53:16.239Z,99753.11
2019-02-19T14:56:09.452Z,99753.75
2019-02-19T14:59:02.597Z,99754.34
2019-02-19T15:01:49.994Z,99753.34
2019-02-19T15:04:39.874Z,99763.09
2019-02-19T15:07:18.222Z,99764.91
2019-02-19T15:10:08.586Z,99772.81
2019-02-19T15:12:48.544Z,99773.91
2019-02-19T15:15:34.304Z,99775.00
2019-02-19T15:18:20.208Z,99772.24
2019-02-19T15:20:56.719Z,99765.53
2019-02-19T15:23:33.574Z,99762.59
2019-02-19T15:26:08.369Z,99760.45
2019-02-19T15:32:00.286Z,99762.77
2019-02-19T15:34:56.832Z,99765.39
2019-02-19T15:37:44.401Z,99767.88
2019-02-19T15:40:36.763Z,99764.28
2019-02-19T15:43:24.152Z,99762.80
2019-02-19T15:46:10.568Z,99767.09
2019-02-19T15:48:58.355Z,99767.09
2019-02-19T15:51:38.470Z,99758.53
2019-02-19T15:54:19.634Z,99763.14
2019-02-19T15:57:06.593Z,99760.35
2019-02-19T16:00:00.102Z,99761.81
2019-02-19T16:02:47.661Z,99767.59
2019-02-19T16:05:31.775Z,99768.09
2019-02-19T16:08:11.908Z,99772.83
2019-02-19T16:11:06.695Z,99774.48
2019-02-19T16:13:42.021Z,99768.07
2019-02-19T16:16:28.037Z,99769.34
2019-02-19T16:19:06.794Z,99769.98
2019-02-19T16:21:56.733Z,99767.66
2019-02-19T16:24:59.372Z,99766.48
2019-02-19T16:27:39.872Z,99769.58
2019-02-19T16:30:48.116Z,99768.42
2019-02-19T16:33:53.828Z,99777.28
2019-02-19T16:36:44.046Z,99775.72
2019-02-19T16:39:29.715Z,99776.34
2019-02-19T16:42:14.770Z,99782.73
2019-02-19T16:44:52.159Z,99787.20
2019-02-19T16:47:36.270Z,99786.78
2019-02-19T16:50:35.255Z,99784.56
2019-02-19T16:53:25.591Z,99790.13
2019-02-19T16:56:31.167Z,99786.84
2019-02-19T16:59:16.959Z,99789.52
2019-02-19T17:01:54.743Z,99789.53
2019-02-19T17:04:42.126Z,99792.98
2019-02-19T17:07:24.629Z,99792.76
2019-02-19T17:10:04.433Z,99800.06
2019-02-19T17:13:03.853Z,99796.52
2019-02-19T17:15:51.222Z,99808.30
2019-02-19T17:18:44.846Z,99807.94
2019-02-19T17:21:23.563Z,99811.89
2019-02-19T17:24:10.995Z,99811.77
2019-02-19T17:27:04.673Z,99818.13
2019-02-19T17:29:38.261Z,99814.16
2019-02-19T17:32:31.713Z,99823.94
2019-02-19T17:35:15.551Z,99826.66
2019-02-19T17:37:52.471Z,99828.42
2019-02-19T17:40:38.519Z,99830.13
2019-02-19T17:43:32.918Z,99835.38
2019-02-19T17:46:13.282Z,99842.13
2019-02-19T17:48:59.567Z,99835.92
2019-02-19T17:51:37.278Z,99836.03
2019-02-19T17:54:30.524Z,99842.10
2019-02-19T17:57:24.764Z,99845.19
2019-02-19T18:00:21.340Z,99848.84
2019-02-19T18:03:17.832Z,99845.91
2019-02-19T18:05:56.193Z,99851.61
2019-02-19T18:08:30.778Z,99853.42
2019-02-19T18:11:20.961Z,99850.41
2019-02-19T18:14:08.473Z,99863.59
2019-02-19T18:16:43.411Z,99862.55
2019-02-19T18:19:11.236Z,99862.84
2019-02-19T18:21:39.045Z,99863.52
2019-02-19T18:24:06.901Z,99864.03
2019-02-19T18:26:34.684Z,99868.63
2019-02-19T18:29:02.546Z,99869.51
2019-02-19T18:31:32.247Z,99804.34
2019-02-19T18:34:00.122Z,99871.99
2019-02-19T18:36:27.910Z,99876.10
2019-02-19T18:38:55.718Z,99876.52
2019-02-19T18:41:23.549Z,99873.13
2019-02-19T18:43:51.391Z,99878.89
2019-02-19T18:46:19.286Z,99878.72
2019-02-19T18:48:48.786Z,99884.35
2019-02-19T18:51:16.768Z,99887.31
2019-02-19T18:53:44.596Z,99889.77
2019-02-19T18:56:12.475Z,99891.17
2019-02-19T18:58:40.400Z,99892.52
2019-02-19T19:01:08.677Z,99895.95
2019-02-19T19:03:36.940Z,99894.63
2019-02-19T19:06:04.756Z,99895.83
2019-02-19T19:08:52.069Z,99903.19
2019-02-19T19:11:20.594Z,99901.98
2019-02-19T19:13:48.528Z,99912.41
2019-02-19T19:16:19.559Z,99914.27
2019-02-19T19:18:48.544Z,99913.40
2019-02-19T19:21:16.329Z,99918.33
2019-02-19T19:23:45.771Z,99916.73
2019-02-19T19:26:13.687Z,99920.05
2019-02-19T19:28:41.549Z,99922.47
2019-02-19T19:31:09.629Z,99922.58
2019-02-19T19:33:37.498Z,99923.37
2019-02-19T19:36:05.311Z,99923.18
2019-02-19T19:38:33.172Z,99928.03
2019-02-19T19:41:02.052Z,99927.67
2019-02-19T19:43:30.614Z,99926.41
2019-02-19T19:45:58.478Z,99927.63
2019-02-19T19:48:26.749Z,99931.87
2019-02-19T19:50:55.330Z,99932.03
2019-02-19T19:53:24.033Z,99933.19
2019-02-19T19:55:52.441Z,99936.78
2019-02-19T19:58:20.825Z,99940.31
2019-02-19T20:00:52.831Z,99933.95
2019-02-19T20:03:21.137Z,99943.03
2019-02-19T20:05:49.786Z,99941.23
2019-02-19T20:08:18.500Z,99946.38
2019-02-19T20:10:49.030Z,99946.00
2019-02-19T20:13:17.269Z,99952.24
2019-02-19T20:15:45.683Z,99955.08
2019-02-19T20:18:14.741Z,99960.72
2019-02-19T20:20:43.862Z,99963.87
2019-02-19T20:23:12.094Z,99962.48
2019-02-19T20:25:40.291Z,99964.38
2019-02-19T20:28:09.233Z,99963.14
2019-02-19T20:30:42.928Z,99962.75
2019-02-19T20:33:11.186Z,99964.77
2019-02-19T20:35:39.630Z,99961.11
2019-02-19T20:38:08.085Z,99962.91
2019-02-19T20:40:41.537Z,99961.52
2019-02-19T20:43:10.206Z,99962.72
2019-02-19T20:45:38.360Z,99970.52
2019-02-19T20:48:06.795Z,99971.14
2019-02-19T20:50:35.008Z,99974.36
2019-02-19T20:53:22.523Z,99975.08
2019-02-19T20:55:50.701Z,99974.17
2019-02-19T20:58:19.036Z,99978.19
2019-02-19T21:00:47.298Z,99974.95
2019-02-19T21:03:15.596Z,99977.25
2019-02-19T21:05:44.005Z,99972.52
2019-02-19T21:08:12.793Z,99973.56
2019-02-19T21:10:41.180Z,99977.33
2019-02-19T21:13:09.633Z,99975.70
2019-02-19T21:15:37.962Z,99980.25
2019-02-19T21:18:06.531Z,99978.72
2019-02-19T21:20:34.826Z,99980.69
2019-02-19T21:23:03.100Z,99983.64
2019-02-19T21:25:31.520Z,99978.70
2019-02-19T21:27:59.738Z,99986.58
2019-02-19T21:30:33.403Z,99982.04
2019-02-19T21:33:01.480Z,99987.48
2019-02-19T21:35:29.809Z,99992.65
2019-02-19T21:37:58.186Z,99989.96
2019-02-19T21:40:26.445Z,99989.96
2019-02-19T21:42:54.564Z,99995.25
2019-02-19T21:45:22.874Z,99986.30
2019-02-19T21:47:51.304Z,99991.33
2019-02-19T21:50:20.364Z,99990.38
2019-02-19T21:52:48.495Z,99995.40
2019-02-19T21:55:16.671Z,99997.43
2019-02-19T21:57:44.864Z,99996.94
2019-02-19T22:00:23.381Z,99994.15
2019-02-19T22:02:51.692Z,99995.08
2019-02-19T22:05:19.837Z,99995.39
2019-02-19T22:07:47.989Z,99998.91
2019-02-19T22:10:31.557Z,99998.77
2019-02-19T22:12:59.794Z,100004.55
2019-02-19T22:15:28.023Z,100008.22
2019-02-19T22:17:56.238Z,100006.89
2019-02-19T22:20:39.798Z,100007.21
2019-02-19T22:23:08.143Z,100004.88
2019-02-19T22:25:36.451Z,100008.11
2019-02-19T22:28:04.586Z,100008.73
2019-02-19T22:30:37.161Z,100015.82
2019-02-19T22:33:05.552Z,100014.84
2019-02-19T22:35:33.899Z,100017.78
2019-02-19T22:38:02.253Z,100020.09
2019-02-19T22:40:55.260Z,100021.58
2019-02-19T22:43:20.254Z,100022.08
2019-02-19T22:45:48.093Z,100028.66
2019-02-19T22:48:15.870Z,100032.88
2019-02-19T22:50:43.723Z,100032.62
2019-02-19T22:53:29.871Z,100030.49
2019-02-19T22:56:03.769Z,100035.77
2019-02-19T22:58:31.754Z,100034.86
2019-02-19T23:01:10.231Z,100039.27
2019-02-19T23:03:38.839Z,100043.63
2019-02-19T23:06:07.384Z,100042.92
2019-02-19T23:08:35.144Z,100045.20
2019-02-19T23:11:03.009Z,100051.52
2019-02-19T23:13:31.033Z,100053.56
2019-02-19T23:15:58.900Z,100055.95
2019-02-19T23:18:26.694Z,100053.40
2019-02-19T23:20:54.522Z,100060.56
2019-02-19T23:23:41.749Z,100057.84
2019-02-19T23:26:09.581Z,100060.91
2019-02-19T23:28:37.410Z,100060.08
2019-02-19T23:31:05.369Z,100056.81
2019-02-19T23:33:33.178Z,100061.55
2019-02-19T23:36:12.318Z,100061.55
2019-02-19T23:38:40.172Z,100059.49
2019-02-19T23:41:13.063Z,100055.70
2019-02-19T23:43:40.879Z,100061.23
2019-02-19T23:46:08.718Z,100057.52
2019-02-19T23:48:56.232Z,100054.28
2019-02-19T23:51:24.085Z,100059.34
2019-02-19T23:53:51.915Z,100058.38
2019-02-19T23:56:19.747Z,100061.95
2019-02-19T23:58:47.557Z,100061.83
